KCCA/CCA METAR and TAF weather

Enter ICAO airport designator
Station Type Date Time Source
KCCA METAR 2019/08/21 22:15 UTC NOAA

KCCA 212215Z AUTO VRB05G10KT 10SM VCTS FEW046 SCT055 SCT075 28/21 A2999 RMK AO2 LTG DSNT N


Station Type Date Time Source
KCCA Decoded METAR 2019/08/21 22:15 UTC NOAA

Station name not available
Aug 21, 2019 - 06:15 PM EDT / 2019.08.21 2215 UTC
Wind: Variable at 6 MPH (5 KT) gusting to 12 MPH (10 KT):0
Visibility: 10 mile(s):0
Sky conditions: partly cloudy
Weather: thunder in the vicinity; Lightning observed
Temperature: 82 F (28 C)
Dew Point: 69 F (21 C)
Relative Humidity: 65%
Pressure (altimeter): 29.99 in. Hg (1015 hPa)
ob: KCCA 212215Z AUTO VRB05G10KT 10SM VCTS FEW046 SCT055 SCT075 28/21 A2999 RMK AO2 LTG DSNT N
cycle: 22

Station Type Date Time Source
KCCA TAF UTC NOAA

Error!

Example: see airport list